Meteo Giornale » Osservazioni meteo Italia » Cagliari-Elmas

ore: 02:50 - Osservazioni Meteo Cagliari-Elmas
Lat. 39° 15' N Lon. 9° 4' E Alt. 4 metri s.l.m.

sereno Europe/Rome

12 °C

Sereno

Temp. 24 Ore

11 °C

25 °C

Nord-Ovest

13 Km/h

Dew point 11 °C

Umidità 93 %

Visibilità  10 Km

Il sole sorge alle ore 06:03

Il sole tramonta alle ore 20:37

Data e Ora Cielo e Fenomeni T °C DP °C Um. % Pres. hPa Vis. km Vento km/h
Oggi h: 02:50 sereno Sereno 12 11 93 1017 10 NO 13
Oggi h: 01:50 sereno Sereno 13 11 87 1017 10 NO 11.1
Oggi h: 01:20 sereno Sereno 13 11 87 1017 10 NO 13
Oggi h: 00:50 sereno Sereno 14 11 82 1017 10 NO 13
Oggi h: 00:20 sereno Sereno 14 10 76 1018 10 NO 9.3
Ieri h: 23:50 sereno Sereno 14 9 71 1018 10 N/NO 9.3
Ieri h: 23:20 sereno Sereno 15 9 67 1018 10 N 13
Ieri h: 22:50 sereno Sereno 16 9 63 1017 10 N 16.7
Ieri h: 22:20 sereno Sereno 16 9 63 1017 10 N 13
Ieri h: 21:50 sereno Sereno 17 9 59 1017 10 N 11.1
Ieri h: 21:20 sereno Sereno 18 9 55 1016 10 N 16.7
Ieri h: 20:50 sereno Sereno 19 8 48 1016 10 N 14.8
Ieri h: 20:20 sereno Sereno 20 7 42 1016 10 N 24
Ieri h: 19:50 sereno Sereno 21 8 43 1015 10 N/NO 24
Ieri h: 19:20 sereno Sereno 22 7 37 1015 10 N 25.9
Ieri h: 18:50 poco_nuvoloso Poco Nuvoloso 23 7 35 1015 10 N/NO 22.2
Ieri h: 18:20 poco_nuvoloso Poco Nuvoloso 24 8 35 1015 10 N/NO 22.2
Ieri h: 17:50 poco_nuvoloso Poco Nuvoloso 25 6 29 1015 10 N/NO 14.8
Ieri h: 17:20 poco_nuvoloso Poco Nuvoloso 25 5 27 1015 10 N 14.8
Ieri h: 16:50 poco_nuvoloso Poco Nuvoloso 25 7 31 1015 10 N 11.1
Ieri h: 16:20 poco_nuvoloso Poco Nuvoloso 24 12 47 1015 10 SE 14.8
Ieri h: 15:50 poco_nuvoloso Poco Nuvoloso 21 14 64 1015 10 E/SE 18.5
Ieri h: 15:20 poco_nuvoloso Poco Nuvoloso 22 15 64 1015 10 SE 18.5
Ieri h: 14:50 poco_nuvoloso Poco Nuvoloso 22 14 60 1015 10 S/SE 18.5
Ieri h: 14:20 poco_nuvoloso Poco Nuvoloso 22 13 56 1015 10 S/SE 20.3
Ieri h: 13:50 poco_nuvoloso Poco Nuvoloso 22 12 53 1015 10 SE 16.7
Ieri h: 13:20 poco_nuvoloso Poco Nuvoloso 22 13 56 1015 10 SE 16.7
Ieri h: 12:50 poco_nuvoloso Poco Nuvoloso 22 13 56 1016 10 SE 16.7
Ieri h: 12:20 poco_nuvoloso Poco Nuvoloso 21 12 56 1016 10 SE 16.7
Ieri h: 11:50 poco_nuvoloso Poco Nuvoloso 21 14 64 1016 10 S/SE 14.8
Ieri h: 11:20 poco_nuvoloso Poco Nuvoloso 20 12 59 1016 10 S/SE 13
Ieri h: 10:50 poco_nuvoloso Poco Nuvoloso 20 12 59 1016 10 S/SE 11.1
Ieri h: 10:20 poco_nuvoloso Poco Nuvoloso 19 11 59 1016 10 SE 13
Ieri h: 09:50 poco_nuvoloso Poco Nuvoloso 18 13 72 1016 10 S 7.4
Ieri h: 09:20 poco_nuvoloso Poco Nuvoloso 17 13 77 1016 10 N 3.7
Ieri h: 08:50 poco_nuvoloso Poco Nuvoloso 16 13 82 1016 10 SO 7.4
Ieri h: 08:20 sereno Sereno 15 13 87 1015 10 N/NO 7.4
Ieri h: 07:50 sereno Sereno 14 12 87 1015 10 N 5.5
Ieri h: 07:20 sereno Sereno 13 11 87 1015 10 NO 7.4
Ieri h: 06:50 sereno Sereno 11 10 93 1015 10 N 3.7
Ieri h: 06:20 sereno Sereno 11 10 93 1015 10 N 1.8
Ieri h: 05:50 sereno Sereno 11 9 87 1014 10 N 1.8
Ieri h: 04:50 sereno Sereno 12 10 87 1014 10 N/NO 7.4
Ieri h: 04:20 sereno Sereno 12 10 87 1014 10 N 1.8